createdAt,value
2018-12-05T00:00:22.364Z,0.92
2018-12-05T00:01:22.266Z,0.92
2018-12-05T00:02:22.190Z,1.00
2018-12-05T00:03:22.100Z,0.92
2018-12-05T00:04:22.024Z,0.98
2018-12-05T00:05:21.930Z,0.94
2018-12-05T00:06:21.855Z,1.01
2018-12-05T00:07:21.774Z,0.94
2018-12-05T00:08:21.688Z,0.93
2018-12-05T00:09:21.595Z,0.98
2018-12-05T00:10:21.522Z,0.93
2018-12-05T00:11:21.431Z,0.87
2018-12-05T00:12:21.355Z,0.90
2018-12-05T00:13:21.263Z,0.84
2018-12-05T00:14:21.184Z,0.86
2018-12-05T00:15:21.097Z,0.90
2018-12-05T00:16:21.020Z,0.86
2018-12-05T00:17:20.929Z,0.84
2018-12-05T00:18:20.854Z,0.84
2018-12-05T00:19:20.765Z,0.94
2018-12-05T00:20:20.680Z,0.86
2018-12-05T00:21:20.595Z,0.93
2018-12-05T00:22:20.518Z,0.92
2018-12-05T00:23:20.495Z,0.94
2018-12-05T00:24:20.352Z,0.92
2018-12-05T00:25:20.260Z,0.98
2018-12-05T00:26:20.184Z,1.00
2018-12-05T00:27:20.094Z,0.97
2018-12-05T00:28:20.014Z,0.93
2018-12-05T00:29:19.925Z,0.93
2018-12-05T00:30:19.852Z,0.94
2018-12-05T00:31:19.757Z,0.98
2018-12-05T00:32:19.684Z,0.97
2018-12-05T00:33:19.592Z,0.92
2018-12-05T00:34:19.516Z,0.83
2018-12-05T00:35:19.424Z,0.82
2018-12-05T00:36:19.349Z,0.80
2018-12-05T00:37:19.256Z,0.83
2018-12-05T00:38:19.182Z,0.89
2018-12-05T00:39:19.090Z,0.75
2018-12-05T00:40:19.014Z,0.79
2018-12-05T00:41:18.924Z,0.74
2018-12-05T00:42:18.847Z,0.80
2018-12-05T00:43:18.755Z,0.79
2018-12-05T00:44:18.679Z,0.72
2018-12-05T00:45:18.588Z,0.80
2018-12-05T00:46:18.509Z,0.77
2018-12-05T00:47:18.425Z,0.80
2018-12-05T00:48:18.346Z,0.82
2018-12-05T00:49:18.252Z,0.87
2018-12-05T00:50:18.176Z,0.79
2018-12-05T00:51:18.086Z,0.72
2018-12-05T00:52:18.009Z,0.82
2018-12-05T00:53:17.921Z,0.77
2018-12-05T00:54:17.842Z,0.75
2018-12-05T00:55:17.754Z,0.77
2018-12-05T00:56:17.672Z,0.80
2018-12-05T00:57:17.581Z,0.80
2018-12-05T00:58:17.509Z,0.74
2018-12-05T00:59:17.416Z,0.80
2018-12-05T01:00:17.342Z,0.72
2018-12-05T01:01:17.250Z,0.72
2018-12-05T01:02:17.178Z,0.86
2018-12-05T01:03:17.084Z,0.82
2018-12-05T01:04:17.007Z,0.68
2018-12-05T01:05:16.913Z,0.62
2018-12-05T01:06:16.850Z,0.64
2018-12-05T01:07:16.747Z,0.68
2018-12-05T01:08:16.672Z,0.65
2018-12-05T01:09:16.583Z,0.68
2018-12-05T01:10:16.503Z,0.68
2018-12-05T01:11:16.414Z,0.66
2018-12-05T01:12:16.338Z,0.69
2018-12-05T01:13:16.244Z,0.69
2018-12-05T01:14:16.171Z,0.75
2018-12-05T01:15:16.078Z,0.72
2018-12-05T01:16:16.000Z,0.75
2018-12-05T01:17:15.963Z,0.74
2018-12-05T01:18:15.834Z,0.75
2018-12-05T01:19:15.742Z,0.80
2018-12-05T01:20:15.674Z,0.79
2018-12-05T01:21:15.578Z,0.71
2018-12-05T01:22:15.501Z,0.72
2018-12-05T01:23:15.411Z,0.64
2018-12-05T01:24:15.334Z,0.68
2018-12-05T01:25:15.244Z,0.64
2018-12-05T01:26:15.167Z,0.64
2018-12-05T01:27:15.079Z,0.59
2018-12-05T01:28:15.240Z,0.69
2018-12-05T01:29:15.352Z,0.66
2018-12-05T01:30:15.368Z,0.68
2018-12-05T01:31:14.743Z,0.69
2018-12-05T01:32:14.738Z,0.71
2018-12-05T01:33:16.352Z,0.83
2018-12-05T01:34:14.880Z,0.77
2018-12-05T01:35:14.409Z,0.68
2018-12-05T01:36:14.333Z,0.72
2018-12-05T01:37:14.238Z,0.77
2018-12-05T01:38:14.161Z,0.75
2018-12-05T01:39:14.072Z,0.80
2018-12-05T01:40:13.994Z,0.84
2018-12-05T01:41:13.900Z,0.75
2018-12-05T01:42:13.833Z,0.82
2018-12-05T01:43:13.739Z,0.72
2018-12-05T01:44:13.664Z,0.87
2018-12-05T01:45:13.569Z,0.87
2018-12-05T01:46:13.499Z,0.87
2018-12-05T01:47:13.402Z,0.86
2018-12-05T01:48:13.327Z,0.86
2018-12-05T01:49:13.231Z,0.84
2018-12-05T01:50:13.157Z,0.80
2018-12-05T01:51:13.065Z,0.83
2018-12-05T01:52:12.993Z,0.93
2018-12-05T01:53:12.898Z,0.93
2018-12-05T01:54:12.827Z,0.94
2018-12-05T01:55:12.737Z,0.90
2018-12-05T01:56:12.655Z,0.90
2018-12-05T01:57:12.566Z,0.98
2018-12-05T01:58:12.487Z,0.90
2018-12-05T01:59:12.398Z,0.93
2018-12-05T02:00:12.324Z,0.97
2018-12-05T02:01:12.232Z,0.98
2018-12-05T02:02:12.159Z,0.84
2018-12-05T02:03:12.065Z,0.97
2018-12-05T02:04:11.984Z,0.83
2018-12-05T02:05:11.899Z,0.86
2018-12-05T02:06:11.822Z,0.86
2018-12-05T02:07:11.729Z,0.87
2018-12-05T02:08:11.652Z,0.92
2018-12-05T02:09:11.559Z,0.86
2018-12-05T02:10:11.487Z,0.86
2018-12-05T02:11:11.395Z,1.01
2018-12-05T02:12:11.314Z,0.97
2018-12-05T02:13:11.226Z,1.01
2018-12-05T02:14:11.151Z,0.90
2018-12-05T02:15:11.061Z,1.00
2018-12-05T02:16:10.994Z,1.00
2018-12-05T02:17:10.892Z,0.93
2018-12-05T02:18:10.817Z,0.83
2018-12-05T02:19:10.727Z,0.86
2018-12-05T02:20:10.649Z,0.84
2018-12-05T02:21:10.559Z,0.82
2018-12-05T02:22:10.487Z,0.93
2018-12-05T02:23:10.392Z,0.87
2018-12-05T02:24:10.315Z,0.94
2018-12-05T02:25:10.232Z,0.98
2018-12-05T02:26:10.146Z,0.92
2018-12-05T02:27:10.064Z,0.93
2018-12-05T02:28:09.985Z,0.97
2018-12-05T02:29:09.888Z,0.94
2018-12-05T02:30:09.815Z,1.00
2018-12-05T02:31:09.725Z,0.94
2018-12-05T02:32:09.643Z,1.05
2018-12-05T02:33:09.554Z,1.02
2018-12-05T02:34:09.477Z,1.02
2018-12-05T02:35:09.493Z,0.94
2018-12-05T02:36:09.317Z,0.97
2018-12-05T02:37:09.219Z,0.98
2018-12-05T02:38:09.149Z,1.00
2018-12-05T02:39:09.054Z,1.05
2018-12-05T02:40:08.979Z,1.07
2018-12-05T02:41:08.890Z,1.15
2018-12-05T02:42:08.811Z,1.18
2018-12-05T02:43:08.717Z,1.20
2018-12-05T02:44:08.643Z,1.11
2018-12-05T02:45:08.551Z,1.22
2018-12-05T02:46:08.475Z,1.20
2018-12-05T02:47:08.388Z,1.16
2018-12-05T02:48:08.304Z,1.19
2018-12-05T02:49:08.214Z,1.11
2018-12-05T02:50:08.146Z,1.16
2018-12-05T02:51:08.051Z,1.18
2018-12-05T02:52:07.974Z,1.12
2018-12-05T02:53:07.884Z,1.18
2018-12-05T02:54:07.808Z,1.15
2018-12-05T02:55:07.716Z,1.23
2018-12-05T02:56:07.640Z,1.16
2018-12-05T02:57:07.556Z,1.11
2018-12-05T02:58:07.478Z,1.26
2018-12-05T02:59:07.382Z,1.30
2018-12-05T03:00:07.308Z,1.20
2018-12-05T03:01:07.224Z,1.25
2018-12-05T03:02:07.140Z,1.25
2018-12-05T03:03:07.049Z,1.16
2018-12-05T03:04:06.974Z,1.16
2018-12-05T03:05:07.973Z,1.16
2018-12-05T03:06:06.813Z,1.20
2018-12-05T03:07:06.713Z,1.25
2018-12-05T03:08:06.638Z,1.23
2018-12-05T03:09:06.545Z,1.16
2018-12-05T03:10:06.471Z,1.26
2018-12-05T03:11:06.377Z,1.20
2018-12-05T03:12:06.319Z,1.22
2018-12-05T03:13:06.212Z,1.23
2018-12-05T03:14:06.139Z,1.26
2018-12-05T03:15:06.050Z,1.20
2018-12-05T03:16:05.971Z,1.23
2018-12-05T03:17:05.878Z,1.22
2018-12-05T03:18:05.802Z,1.23
2018-12-05T03:19:05.711Z,1.25
2018-12-05T03:20:05.643Z,1.15
2018-12-05T03:21:05.544Z,1.16
2018-12-05T03:22:05.465Z,1.25
2018-12-05T03:23:05.377Z,1.18
2018-12-05T03:24:05.304Z,1.28
2018-12-05T03:25:05.209Z,1.22
2018-12-05T03:26:05.130Z,1.16
2018-12-05T03:27:05.044Z,1.25
2018-12-05T03:28:04.969Z,1.28
2018-12-05T03:29:06.744Z,1.26
2018-12-05T03:30:04.802Z,1.25
2018-12-05T03:31:04.711Z,1.26
2018-12-05T03:32:04.645Z,1.23
2018-12-05T03:33:04.569Z,1.26
2018-12-05T03:34:04.467Z,1.28
2018-12-05T03:35:04.376Z,1.22
2018-12-05T03:36:04.299Z,1.29
2018-12-05T03:37:04.208Z,1.25
2018-12-05T03:38:04.131Z,1.23
2018-12-05T03:39:04.042Z,1.28
2018-12-05T03:40:03.963Z,1.28
2018-12-05T03:41:03.875Z,1.32
2018-12-05T03:42:03.796Z,1.25
2018-12-05T03:43:03.706Z,1.28
2018-12-05T03:44:03.691Z,1.22
2018-12-05T03:45:03.540Z,1.25
2018-12-05T03:46:03.465Z,1.28
2018-12-05T03:47:03.381Z,1.26
2018-12-05T03:48:03.306Z,1.29
2018-12-05T03:49:03.303Z,1.29
2018-12-05T03:50:03.133Z,1.26
2018-12-05T03:51:03.041Z,1.30
2018-12-05T03:52:02.962Z,1.25
2018-12-05T03:53:02.876Z,1.34
2018-12-05T03:54:02.803Z,1.29
2018-12-05T03:55:02.707Z,1.23
2018-12-05T03:56:02.636Z,1.26
2018-12-05T03:57:02.543Z,1.25
2018-12-05T03:58:02.461Z,1.28
2018-12-05T03:59:02.372Z,1.22
2018-12-05T04:00:02.300Z,1.29
2018-12-05T04:01:02.204Z,1.29
2018-12-05T04:02:02.124Z,1.18
2018-12-05T04:03:02.038Z,1.18
2018-12-05T04:04:01.963Z,1.16
2018-12-05T04:05:01.874Z,1.18
2018-12-05T04:06:01.804Z,1.22
2018-12-05T04:07:01.704Z,1.22
2018-12-05T04:08:01.638Z,1.23
2018-12-05T04:09:01.534Z,1.20
2018-12-05T04:10:01.463Z,1.28
2018-12-05T04:11:01.377Z,1.18
2018-12-05T04:12:01.299Z,1.22
2018-12-05T04:13:01.207Z,1.11
2018-12-05T04:14:01.130Z,1.05
2018-12-05T04:15:01.050Z,1.02
2018-12-05T04:16:00.965Z,0.97
2018-12-05T04:17:00.868Z,0.92
2018-12-05T04:18:00.798Z,0.97
2018-12-05T04:19:00.705Z,0.93
2018-12-05T04:20:00.626Z,0.97
2018-12-05T04:21:00.537Z,0.92
2018-12-05T04:22:00.461Z,0.94
2018-12-05T04:23:00.369Z,0.93
2018-12-05T04:24:00.293Z,0.90
2018-12-05T04:25:00.203Z,1.02
2018-12-05T04:26:00.126Z,1.02
2018-12-05T04:27:00.033Z,1.07
2018-12-05T04:27:59.967Z,1.05
2018-12-05T04:28:59.865Z,1.02
2018-12-05T04:29:59.794Z,1.08
2018-12-05T04:30:59.699Z,1.16
2018-12-05T04:31:59.620Z,1.11
2018-12-05T04:32:59.540Z,1.12
2018-12-05T04:33:59.458Z,1.16
2018-12-05T04:34:59.366Z,1.15
2018-12-05T04:35:59.294Z,1.18
2018-12-05T04:36:59.198Z,1.22
2018-12-05T04:37:59.121Z,1.12
2018-12-05T04:38:59.035Z,1.12
2018-12-05T04:39:58.959Z,1.12
2018-12-05T04:40:58.864Z,1.07
2018-12-05T04:41:58.788Z,1.04
2018-12-05T04:42:58.699Z,1.02
2018-12-05T04:43:58.625Z,0.94
2018-12-05T04:44:58.528Z,1.00
2018-12-05T04:45:58.457Z,0.98
2018-12-05T04:46:58.363Z,0.92
2018-12-05T04:47:58.288Z,0.98
2018-12-05T04:48:58.196Z,0.98
2018-12-05T04:49:58.122Z,0.94
2018-12-05T04:50:58.030Z,0.98
2018-12-05T04:51:57.953Z,0.94
2018-12-05T04:52:57.862Z,0.92
2018-12-05T04:53:57.787Z,0.97
2018-12-05T04:54:57.707Z,1.11
2018-12-05T04:55:57.618Z,0.94
2018-12-05T04:56:57.531Z,0.98
2018-12-05T04:57:57.455Z,0.94
2018-12-05T04:58:57.361Z,0.94
2018-12-05T04:59:57.336Z,0.92
2018-12-05T05:00:57.198Z,1.01
2018-12-05T05:01:57.119Z,1.00
2018-12-05T05:02:57.030Z,1.00
2018-12-05T05:03:56.955Z,0.97
2018-12-05T05:04:56.858Z,0.90
2018-12-05T05:05:56.783Z,0.92
2018-12-05T05:06:56.693Z,0.93
2018-12-05T05:07:56.617Z,0.84
2018-12-05T05:08:56.524Z,0.89
2018-12-05T05:09:56.450Z,0.89
2018-12-05T05:10:56.362Z,0.90
2018-12-05T05:11:56.278Z,0.75
2018-12-05T05:12:56.188Z,0.75
2018-12-05T05:13:56.114Z,0.80
2018-12-05T05:14:56.025Z,0.90
2018-12-05T05:15:55.957Z,0.89
2018-12-05T05:16:55.852Z,0.74
2018-12-05T05:17:55.779Z,0.74
2018-12-05T05:18:55.689Z,0.79
2018-12-05T05:19:55.610Z,0.79
2018-12-05T05:20:55.522Z,0.80
2018-12-05T05:21:55.465Z,0.75
2018-12-05T05:22:55.355Z,0.77
2018-12-05T05:23:55.379Z,0.72
2018-12-05T05:24:55.191Z,0.75
2018-12-05T05:25:55.185Z,0.66
2018-12-05T05:26:55.931Z,0.64
2018-12-05T05:27:54.942Z,0.62
2018-12-05T05:28:54.855Z,0.66
2018-12-05T05:29:54.775Z,0.69
2018-12-05T05:30:54.687Z,0.65
2018-12-05T05:31:54.712Z,0.62
2018-12-05T05:32:54.518Z,0.66
2018-12-05T05:33:54.518Z,0.65
2018-12-05T05:34:54.352Z,0.62
2018-12-05T05:35:54.328Z,0.68
2018-12-05T05:36:54.184Z,0.62
2018-12-05T05:37:54.137Z,0.65
2018-12-05T05:38:54.013Z,0.62
2018-12-05T05:39:54.049Z,0.71
2018-12-05T05:40:53.847Z,0.65
2018-12-05T05:41:53.860Z,0.65
2018-12-05T05:42:53.680Z,0.56
2018-12-05T05:43:53.663Z,0.66
2018-12-05T05:44:53.511Z,0.61
2018-12-05T05:45:53.476Z,0.62
2018-12-05T05:46:53.351Z,0.61
2018-12-05T05:47:53.282Z,0.61
2018-12-05T05:48:53.179Z,0.50
2018-12-05T05:49:53.193Z,0.57
2018-12-05T05:50:53.011Z,0.57
2018-12-05T05:51:53.001Z,0.53
2018-12-05T05:52:52.845Z,0.50
2018-12-05T05:53:52.818Z,0.57
2018-12-05T05:54:52.678Z,0.50
2018-12-05T05:55:52.597Z,0.50
2018-12-05T05:56:52.506Z,0.49
2018-12-05T05:57:52.531Z,0.52
2018-12-05T05:58:52.344Z,0.53
2018-12-05T05:59:52.339Z,0.52
2018-12-05T06:00:52.176Z,0.52
2018-12-05T06:01:52.094Z,0.49
2018-12-05T06:02:52.007Z,0.45
2018-12-05T06:03:51.966Z,0.46
2018-12-05T06:04:51.839Z,0.47
2018-12-05T06:05:51.754Z,0.45
2018-12-05T06:06:51.734Z,0.42
2018-12-05T06:07:51.585Z,0.49
2018-12-05T06:08:51.544Z,0.43
2018-12-05T06:09:51.419Z,0.46
2018-12-05T06:10:51.458Z,0.45
2018-12-05T06:11:51.257Z,0.42
2018-12-05T06:12:51.195Z,0.43
2018-12-05T06:13:51.081Z,0.45
2018-12-05T06:14:51.106Z,0.46
2018-12-05T06:15:50.921Z,0.45
2018-12-05T06:16:50.836Z,0.42
2018-12-05T06:17:50.819Z,0.50
2018-12-05T06:18:50.665Z,0.47
2018-12-05T06:19:50.588Z,0.43
2018-12-05T06:20:50.498Z,0.49
2018-12-05T06:21:50.421Z,0.40
2018-12-05T06:22:50.326Z,0.45
2018-12-05T06:23:50.252Z,0.39
2018-12-05T06:24:50.157Z,0.46
2018-12-05T06:25:50.084Z,0.46
2018-12-05T06:26:49.993Z,0.49
2018-12-05T06:27:49.919Z,0.43
2018-12-05T06:28:49.831Z,0.46
2018-12-05T06:29:49.749Z,0.40
2018-12-05T06:30:49.659Z,0.43
2018-12-05T06:31:49.581Z,0.45
2018-12-05T06:32:49.489Z,0.43
2018-12-05T06:33:49.406Z,0.35
2018-12-05T06:34:49.324Z,0.35
2018-12-05T06:35:49.276Z,0.27
2018-12-05T06:36:49.158Z,0.14
2018-12-05T06:37:49.183Z,0.11
2018-12-05T06:38:48.984Z,0.16
2018-12-05T06:39:48.917Z,0.06
2018-12-05T06:40:48.816Z,0.17
2018-12-05T06:41:48.800Z,0.09
2018-12-05T06:42:48.652Z,0.06
2018-12-05T06:43:48.614Z,0.11
2018-12-05T06:44:48.484Z,-0.01
2018-12-05T06:45:48.423Z,0.16
2018-12-05T06:46:48.316Z,0.17
2018-12-05T06:47:48.336Z,0.21
2018-12-05T06:48:48.151Z,0.21
2018-12-05T06:49:48.143Z,0.22
2018-12-05T06:50:47.981Z,0.24
2018-12-05T06:51:47.951Z,0.22
2018-12-05T06:52:47.814Z,0.22
2018-12-05T06:53:47.757Z,0.22
2018-12-05T06:54:47.645Z,0.22
2018-12-05T06:55:47.672Z,0.17
2018-12-05T06:56:47.475Z,0.21
2018-12-05T06:57:47.479Z,0.25
2018-12-05T06:58:47.314Z,0.24
2018-12-05T06:59:47.290Z,0.24
2018-12-05T07:00:47.141Z,0.18
2018-12-05T07:01:47.104Z,0.21
2018-12-05T07:02:46.980Z,0.22
2018-12-05T07:03:46.911Z,0.21
2018-12-05T07:04:46.805Z,0.14
2018-12-05T07:05:46.819Z,0.17
2018-12-05T07:06:46.639Z,0.16
2018-12-05T07:07:46.629Z,0.16
2018-12-05T07:08:46.469Z,0.14
2018-12-05T07:09:46.436Z,0.18
2018-12-05T07:10:46.304Z,0.17
2018-12-05T07:11:46.245Z,0.17
2018-12-05T07:12:46.132Z,0.14
2018-12-05T07:13:46.159Z,0.13
2018-12-05T07:14:45.967Z,0.16
2018-12-05T07:15:45.966Z,0.18
2018-12-05T07:16:45.797Z,0.24
2018-12-05T07:17:45.770Z,0.18
2018-12-05T07:18:45.625Z,0.24
2018-12-05T07:19:45.585Z,0.32
2018-12-05T07:20:45.461Z,0.22
2018-12-05T07:21:45.496Z,0.25
2018-12-05T07:22:45.292Z,0.35
2018-12-05T07:23:45.304Z,0.35
2018-12-05T07:24:45.123Z,0.32
2018-12-05T07:25:45.114Z,0.45
2018-12-05T07:26:44.957Z,0.45
2018-12-05T07:27:44.923Z,0.57
2018-12-05T07:28:44.786Z,0.64
2018-12-05T07:29:44.734Z,0.75
2018-12-05T07:30:44.619Z,0.83
2018-12-05T07:31:44.536Z,0.93
2018-12-05T07:32:44.548Z,1.00
2018-12-05T07:33:44.366Z,1.04
2018-12-05T07:34:44.357Z,1.04
2018-12-05T07:35:44.199Z,1.08
2018-12-05T07:36:44.173Z,1.08
2018-12-05T07:37:44.030Z,1.10
2018-12-05T07:38:43.974Z,1.05
2018-12-05T07:39:43.863Z,1.05
2018-12-05T07:40:43.888Z,1.07
2018-12-05T07:41:43.697Z,1.18
2018-12-05T07:42:43.700Z,1.11
2018-12-05T07:43:43.529Z,1.23
2018-12-05T07:44:43.507Z,1.25
2018-12-05T07:45:43.358Z,1.29
2018-12-05T07:46:43.275Z,1.26
2018-12-05T07:47:43.196Z,1.26
2018-12-05T07:48:43.224Z,1.41
2018-12-05T07:49:43.025Z,1.43
2018-12-05T07:50:43.034Z,1.50
2018-12-05T07:51:42.856Z,1.59
2018-12-05T07:52:42.848Z,1.58
2018-12-05T07:53:42.688Z,1.61
2018-12-05T07:54:42.653Z,1.58
2018-12-05T07:55:42.522Z,1.56
2018-12-05T07:56:42.461Z,1.58
2018-12-05T07:57:42.352Z,1.68
2018-12-05T07:58:42.374Z,1.80
2018-12-05T07:59:42.183Z,1.98
2018-12-05T08:00:42.101Z,2.05
2018-12-05T08:01:42.086Z,2.21
2018-12-05T08:02:41.937Z,2.39
2018-12-05T08:03:41.897Z,2.41
2018-12-05T08:04:41.798Z,2.62
2018-12-05T08:05:41.812Z,2.86
2018-12-05T08:06:41.602Z,2.89
2018-12-05T08:07:41.615Z,2.91
2018-12-05T08:08:41.429Z,2.96
2018-12-05T08:09:41.351Z,2.84
2018-12-05T08:10:41.267Z,2.86
2018-12-05T08:11:41.235Z,2.81
2018-12-05T08:12:41.100Z,2.80
2018-12-05T08:13:41.041Z,2.66
2018-12-05T08:14:40.935Z,2.53
2018-12-05T08:15:40.948Z,2.48
2018-12-05T08:16:40.772Z,2.32
2018-12-05T08:17:40.763Z,2.32
2018-12-05T08:18:40.599Z,2.17
2018-12-05T08:19:40.570Z,2.23
2018-12-05T08:20:40.432Z,2.17
2018-12-05T08:21:40.354Z,2.17
2018-12-05T08:22:40.266Z,2.09
2018-12-05T08:23:40.296Z,2.13
2018-12-05T08:24:40.101Z,2.06
2018-12-05T08:25:40.951Z,2.14
2018-12-05T08:26:39.936Z,2.09
2018-12-05T08:27:39.910Z,2.12
2018-12-05T08:28:39.770Z,2.02
2018-12-05T08:29:39.719Z,2.03
2018-12-05T08:30:39.605Z,2.01
2018-12-05T08:31:39.631Z,2.13
2018-12-05T08:32:39.433Z,2.06
2018-12-05T08:33:39.444Z,2.05
2018-12-05T08:34:39.272Z,2.06
2018-12-05T08:35:39.249Z,2.06
2018-12-05T08:36:39.103Z,1.94
2018-12-05T08:37:39.053Z,1.86
2018-12-05T08:38:38.933Z,1.83
2018-12-05T08:39:38.968Z,1.82
2018-12-05T08:40:38.767Z,1.79
2018-12-05T08:41:38.684Z,1.76
2018-12-05T08:42:38.600Z,1.77
2018-12-05T08:43:38.584Z,1.79
2018-12-05T08:44:38.433Z,1.76
2018-12-05T08:45:38.396Z,1.82
2018-12-05T08:46:38.266Z,1.74
2018-12-05T08:47:38.305Z,1.79
2018-12-05T08:48:38.104Z,1.77
2018-12-05T08:49:38.120Z,1.68
2018-12-05T08:50:37.936Z,1.74
2018-12-05T08:51:37.922Z,1.77
2018-12-05T08:52:37.772Z,1.76
2018-12-05T08:53:37.733Z,1.82
2018-12-05T08:54:37.599Z,1.83
2018-12-05T08:55:37.541Z,1.87
2018-12-05T08:56:37.432Z,1.90
2018-12-05T08:57:37.351Z,1.95
2018-12-05T08:58:37.267Z,1.95
2018-12-05T08:59:37.262Z,1.91
2018-12-05T09:00:37.105Z,1.92
2018-12-05T09:01:37.070Z,2.03
2018-12-05T09:02:36.977Z,1.99
2018-12-05T09:03:36.855Z,2.01
2018-12-05T09:04:36.890Z,1.95
2018-12-05T09:05:36.685Z,1.98
2018-12-05T09:06:36.694Z,1.98
2018-12-05T09:07:36.517Z,2.06
2018-12-05T09:08:36.505Z,2.02
2018-12-05T09:09:36.348Z,2.06
2018-12-05T09:10:36.314Z,2.06
2018-12-05T09:11:36.183Z,1.99
2018-12-05T09:12:36.124Z,1.95
2018-12-05T09:13:36.018Z,1.92
2018-12-05T09:14:36.034Z,1.99
2018-12-05T09:15:35.853Z,2.01
2018-12-05T09:16:35.846Z,1.94
2018-12-05T09:17:35.689Z,2.03
2018-12-05T09:18:35.652Z,2.02
2018-12-05T09:19:35.517Z,1.98
2018-12-05T09:20:35.463Z,2.09
2018-12-05T09:21:35.353Z,2.10
2018-12-05T09:22:41.284Z,2.01
2018-12-05T09:23:35.187Z,2.01
2018-12-05T09:24:35.188Z,1.98
2018-12-05T09:25:35.021Z,2.02
2018-12-05T09:26:34.937Z,2.02
2018-12-05T09:27:34.870Z,2.09
2018-12-05T09:28:34.799Z,2.14
2018-12-05T09:29:34.689Z,2.09
2018-12-05T09:30:34.712Z,2.09
2018-12-05T09:31:34.524Z,2.14
2018-12-05T09:32:34.521Z,2.14
2018-12-05T09:33:34.358Z,2.10
2018-12-05T09:34:34.330Z,2.16
2018-12-05T09:35:34.188Z,2.24
2018-12-05T09:36:34.139Z,2.14
2018-12-05T09:37:34.020Z,2.19
2018-12-05T09:38:34.052Z,2.17
2018-12-05T09:39:33.855Z,2.24
2018-12-05T09:40:33.863Z,2.20
2018-12-05T09:41:33.693Z,2.23
2018-12-05T09:42:33.608Z,2.16
2018-12-05T09:43:33.573Z,2.28
2018-12-05T09:44:33.439Z,2.21
2018-12-05T09:45:33.385Z,2.21
2018-12-05T09:46:33.277Z,2.19
2018-12-05T09:47:33.294Z,2.30
2018-12-05T09:48:33.108Z,2.28
2018-12-05T09:49:33.102Z,2.28
2018-12-05T09:50:32.942Z,2.32
2018-12-05T09:51:32.912Z,2.32
2018-12-05T09:52:32.776Z,2.39
2018-12-05T09:53:32.722Z,2.34
2018-12-05T09:54:32.611Z,2.30
2018-12-05T09:55:32.527Z,2.42
2018-12-05T09:56:32.445Z,2.37
2018-12-05T09:57:32.442Z,2.37
2018-12-05T09:58:32.277Z,2.38
2018-12-05T09:59:32.250Z,2.42
2018-12-05T10:00:32.111Z,2.46
2018-12-05T10:01:32.054Z,2.48
2018-12-05T10:02:31.948Z,2.46
2018-12-05T10:03:31.972Z,2.50
2018-12-05T10:04:31.784Z,2.49
2018-12-05T10:05:31.779Z,2.59
2018-12-05T10:06:31.615Z,2.59
2018-12-05T10:07:31.586Z,2.70
2018-12-05T10:08:31.449Z,2.63
2018-12-05T10:09:31.396Z,2.81
2018-12-05T10:10:31.286Z,2.84
2018-12-05T10:11:31.311Z,2.80
2018-12-05T10:12:31.118Z,2.84
2018-12-05T10:13:31.116Z,2.86
2018-12-05T10:14:30.952Z,2.86
2018-12-05T10:15:30.926Z,2.95
2018-12-05T10:16:30.788Z,2.80
2018-12-05T10:17:30.735Z,2.81
2018-12-05T10:18:30.621Z,2.92
2018-12-05T10:19:30.692Z,2.93
2018-12-05T10:20:30.455Z,2.95
2018-12-05T10:21:30.457Z,2.99
2018-12-05T10:22:30.293Z,3.01
2018-12-05T10:23:30.271Z,3.06
2018-12-05T10:24:30.123Z,3.06
2018-12-05T10:25:30.044Z,3.04
2018-12-05T10:26:30.079Z,3.03
2018-12-05T10:27:29.883Z,3.03
2018-12-05T10:28:29.890Z,3.17
2018-12-05T10:29:29.711Z,3.19
2018-12-05T10:30:29.699Z,3.24
2018-12-05T10:31:29.545Z,3.16
2018-12-05T10:32:29.508Z,3.16
2018-12-05T10:33:29.381Z,3.19
2018-12-05T10:34:29.417Z,3.13
2018-12-05T10:35:29.214Z,3.11
2018-12-05T10:36:29.227Z,3.27
2018-12-05T10:37:29.050Z,3.27
2018-12-05T10:38:29.039Z,3.25
2018-12-05T10:39:28.884Z,3.32
2018-12-05T10:40:28.858Z,3.37
2018-12-05T10:41:28.719Z,3.29
2018-12-05T10:42:28.759Z,3.34
2018-12-05T10:43:28.554Z,3.31
2018-12-05T10:44:28.569Z,3.32
2018-12-05T10:45:28.388Z,3.37
2018-12-05T10:46:28.313Z,3.43
2018-12-05T10:47:28.220Z,3.43
2018-12-05T10:48:28.182Z,3.48
2018-12-05T10:49:28.069Z,3.53
2018-12-05T10:50:28.101Z,3.54
2018-12-05T10:51:27.893Z,3.53
2018-12-05T10:52:27.900Z,3.65
2018-12-05T10:53:27.731Z,3.54
2018-12-05T10:54:27.711Z,3.57
2018-12-05T10:55:27.558Z,3.64
2018-12-05T10:56:27.526Z,3.66
2018-12-05T10:57:27.395Z,3.65
2018-12-05T10:58:27.317Z,3.68
2018-12-05T10:59:27.340Z,3.72
2018-12-05T11:00:27.151Z,3.68
2018-12-05T11:01:27.149Z,3.74
2018-12-05T11:02:26.986Z,3.65
2018-12-05T11:03:26.963Z,3.69
2018-12-05T11:04:26.819Z,3.74
2018-12-05T11:05:26.768Z,3.74
2018-12-05T11:06:26.658Z,3.68
2018-12-05T11:07:26.679Z,3.74
2018-12-05T11:08:26.493Z,3.77
2018-12-05T11:09:26.487Z,3.79
2018-12-05T11:10:26.329Z,3.75
2018-12-05T11:11:26.294Z,3.77
2018-12-05T11:12:26.167Z,3.77
2018-12-05T11:13:26.107Z,3.75
2018-12-05T11:14:25.997Z,3.71
2018-12-05T11:15:26.013Z,3.80
2018-12-05T11:16:25.833Z,3.80
2018-12-05T11:17:25.822Z,3.87
2018-12-05T11:18:25.674Z,3.83
2018-12-05T11:19:25.589Z,3.84
2018-12-05T11:20:25.537Z,3.90
2018-12-05T11:21:25.423Z,3.93
2018-12-05T11:22:25.452Z,3.94
2018-12-05T11:23:25.260Z,3.97
2018-12-05T11:24:25.256Z,3.87
2018-12-05T11:25:25.092Z,3.94
2018-12-05T11:26:25.065Z,3.97
2018-12-05T11:27:24.927Z,3.97
2018-12-05T11:28:24.875Z,4.00
2018-12-05T11:29:24.768Z,3.92
2018-12-05T11:30:24.784Z,4.02
2018-12-05T11:31:24.601Z,4.02
2018-12-05T11:32:24.602Z,4.07
2018-12-05T11:33:24.434Z,4.00
2018-12-05T11:34:24.435Z,4.02
2018-12-05T11:35:24.269Z,4.07
2018-12-05T11:36:24.216Z,3.98
2018-12-05T11:37:24.107Z,4.01
2018-12-05T11:38:24.125Z,4.07
2018-12-05T11:39:23.942Z,4.08
2018-12-05T11:40:23.931Z,4.11
2018-12-05T11:41:23.775Z,4.10
2018-12-05T11:42:23.742Z,4.11
2018-12-05T11:43:23.621Z,4.12
2018-12-05T11:44:23.552Z,4.10
2018-12-05T11:45:23.449Z,4.16
2018-12-05T11:46:23.465Z,4.02
2018-12-05T11:47:23.281Z,4.16
2018-12-05T11:48:23.273Z,4.12
2018-12-05T11:49:23.121Z,4.12
2018-12-05T11:50:23.081Z,4.22
2018-12-05T11:51:22.956Z,4.19
2018-12-05T11:52:22.876Z,4.18
2018-12-05T11:53:22.898Z,4.26
2018-12-05T11:54:22.706Z,4.20
2018-12-05T11:55:22.705Z,4.23
2018-12-05T11:56:22.547Z,4.34
2018-12-05T11:57:22.515Z,4.36
2018-12-05T11:58:22.381Z,4.32
2018-12-05T11:59:22.325Z,4.36
2018-12-05T12:00:22.216Z,4.36
2018-12-05T12:01:22.231Z,4.37
2018-12-05T12:02:22.406Z,4.38
2018-12-05T12:03:22.045Z,4.41
2018-12-05T12:04:21.888Z,4.41
2018-12-05T12:05:21.854Z,4.37
2018-12-05T12:06:21.726Z,4.47
2018-12-05T12:07:21.663Z,4.55
2018-12-05T12:08:21.563Z,4.46
2018-12-05T12:09:21.572Z,4.43
2018-12-05T12:10:21.395Z,4.46
2018-12-05T12:11:23.022Z,4.50
2018-12-05T12:12:21.234Z,4.46
2018-12-05T12:13:21.192Z,4.46
2018-12-05T12:14:21.070Z,4.50
2018-12-05T12:15:21.100Z,4.47
2018-12-05T12:16:20.905Z,4.52
2018-12-05T12:17:20.913Z,4.47
2018-12-05T12:18:20.742Z,4.46
2018-12-05T12:19:20.720Z,4.52
2018-12-05T12:20:20.577Z,4.56
2018-12-05T12:21:20.498Z,4.52
2018-12-05T12:22:20.435Z,4.58
2018-12-05T12:23:20.337Z,4.55
2018-12-05T12:24:20.349Z,4.50
2018-12-05T12:25:20.163Z,4.56
2018-12-05T12:26:20.155Z,4.61
2018-12-05T12:27:20.005Z,4.61
2018-12-05T12:28:20.988Z,4.56
2018-12-05T12:29:19.840Z,4.62
2018-12-05T12:30:19.876Z,4.55
2018-12-05T12:31:19.674Z,4.59
2018-12-05T12:32:19.685Z,4.55
2018-12-05T12:33:19.512Z,4.66
2018-12-05T12:34:19.500Z,4.64
2018-12-05T12:35:19.349Z,4.54
2018-12-05T12:36:19.303Z,4.56
2018-12-05T12:37:19.194Z,4.61
2018-12-05T12:38:19.211Z,4.59
2018-12-05T12:39:19.022Z,4.61
2018-12-05T12:40:19.023Z,4.56
2018-12-05T12:41:18.862Z,4.62
2018-12-05T12:42:18.831Z,4.59
2018-12-05T12:43:18.694Z,4.54
2018-12-05T12:44:18.639Z,4.47
2018-12-05T12:45:20.092Z,4.64
2018-12-05T12:46:18.507Z,4.58
2018-12-05T12:47:18.365Z,4.61
2018-12-05T12:48:18.286Z,4.61
2018-12-05T12:49:18.266Z,4.59
2018-12-05T12:50:18.125Z,4.55
2018-12-05T12:51:18.074Z,4.62
2018-12-05T12:52:17.961Z,4.65
2018-12-05T12:53:17.992Z,4.61
2018-12-05T12:54:17.798Z,4.61
2018-12-05T12:55:17.793Z,4.48
2018-12-05T12:56:17.630Z,4.55
2018-12-05T12:57:17.609Z,4.59
2018-12-05T12:58:17.472Z,4.62
2018-12-05T12:59:17.417Z,4.61
2018-12-05T13:00:17.298Z,4.56
2018-12-05T13:01:17.326Z,4.59
2018-12-05T13:02:17.143Z,4.58
2018-12-05T13:03:17.138Z,4.58
2018-12-05T13:04:16.976Z,4.61
2018-12-05T13:05:16.946Z,4.61
2018-12-05T13:06:16.814Z,4.61
2018-12-05T13:07:16.753Z,4.56
2018-12-05T13:08:16.652Z,4.62
2018-12-05T13:09:16.664Z,4.59
2018-12-05T13:10:16.487Z,4.61
2018-12-05T13:11:16.475Z,4.58
2018-12-05T13:12:16.325Z,4.58
2018-12-05T13:13:16.288Z,4.55
2018-12-05T13:14:16.158Z,4.54
2018-12-05T13:15:16.079Z,4.65
2018-12-05T13:16:16.100Z,4.58
2018-12-05T13:17:15.913Z,4.59